createdAt,value
2023-07-09T00:00:01.801Z,7.28
2023-07-09T00:01:03.236Z,7.22
2023-07-09T00:02:05.074Z,6.88
2023-07-09T00:03:06.590Z,7.35
2023-07-09T00:04:12.724Z,7.38
2023-07-09T00:05:16.188Z,7.30
2023-07-09T00:06:21.515Z,6.88
2023-07-09T00:07:31.065Z,7.07
2023-07-09T00:08:32.757Z,6.93
2023-07-09T00:09:35.033Z,7.10
2023-07-09T00:10:36.587Z,6.85
2023-07-09T00:11:38.031Z,6.93
2023-07-09T00:12:39.497Z,7.35
2023-07-09T00:13:41.039Z,6.72
2023-07-09T00:14:43.109Z,7.13
2023-07-09T00:15:44.772Z,7.05
2023-07-09T00:16:49.633Z,7.10
2023-07-09T00:17:51.790Z,7.50
2023-07-09T00:18:53.551Z,7.03
2023-07-09T00:19:55.178Z,7.00
2023-07-09T00:20:56.605Z,6.60
2023-07-09T00:21:58.023Z,7.35
2023-07-09T00:22:59.552Z,6.65
2023-07-09T00:24:05.847Z,7.53
2023-07-09T00:25:14.757Z,7.50
2023-07-09T00:27:20.768Z,7.10
2023-07-09T00:28:22.294Z,7.13
2023-07-09T00:29:23.792Z,7.68
2023-07-09T00:30:25.296Z,8.38
2023-07-09T00:31:27.860Z,7.55
2023-07-09T00:32:29.442Z,7.03
2023-07-09T00:33:32.758Z,7.35
2023-07-09T00:34:34.637Z,8.52
2023-07-09T00:35:36.139Z,7.30
2023-07-09T00:36:37.562Z,8.85
2023-07-09T00:37:39.063Z,7.93
2023-07-09T00:38:41.890Z,7.25
2023-07-09T00:41:07.274Z,7.82
2023-07-09T00:42:15.965Z,8.68
2023-07-09T00:43:18.199Z,7.95
2023-07-09T00:44:31.867Z,8.00
2023-07-09T00:45:33.643Z,7.28
2023-07-09T00:46:35.189Z,8.52
2023-07-09T00:47:44.486Z,7.60
2023-07-09T00:48:52.482Z,6.88
2023-07-09T00:50:05.054Z,7.88
2023-07-09T00:51:14.952Z,7.07
2023-07-09T00:52:25.319Z,7.63
2023-07-09T00:53:32.234Z,7.80
2023-07-09T00:54:42.818Z,7.35
2023-07-09T00:55:47.297Z,7.68
2023-07-09T00:56:52.282Z,6.82
2023-07-09T00:57:58.779Z,7.28
2023-07-09T00:59:05.776Z,6.72
2023-07-09T01:00:16.352Z,7.32
2023-07-09T01:01:20.247Z,7.18
2023-07-09T01:02:24.932Z,7.40
2023-07-09T01:03:34.165Z,7.03
2023-07-09T01:04:37.270Z,8.38
2023-07-09T01:05:40.185Z,8.25
2023-07-09T01:06:48.211Z,7.55
2023-07-09T01:07:49.808Z,9.00
2023-07-09T01:08:54.817Z,7.60
2023-07-09T01:09:56.539Z,8.18
2023-07-09T01:11:00.070Z,9.40
2023-07-09T01:12:02.132Z,7.85
2023-07-09T01:13:03.658Z,7.20
2023-07-09T01:14:08.442Z,7.75
2023-07-09T01:15:12.348Z,8.02
2023-07-09T01:16:13.866Z,7.88
2023-07-09T01:17:15.542Z,7.47
2023-07-09T01:18:17.009Z,8.10
2023-07-09T01:19:24.880Z,7.97
2023-07-09T01:20:28.092Z,8.25
2023-07-09T01:21:29.544Z,7.70
2023-07-09T01:22:31.118Z,8.70
2023-07-09T01:23:33.172Z,8.60
2023-07-09T01:25:08.042Z,7.22
2023-07-09T01:26:12.988Z,8.02
2023-07-09T01:27:15.001Z,7.47
2023-07-09T01:28:17.762Z,7.75
2023-07-09T01:29:19.167Z,8.10
2023-07-09T01:30:30.001Z,8.27
2023-07-09T01:31:31.966Z,8.10
2023-07-09T01:32:34.683Z,7.88
2023-07-09T01:33:36.234Z,8.48
2023-07-09T01:34:37.744Z,8.20
2023-07-09T01:35:43.746Z,8.05
2023-07-09T01:36:45.396Z,8.02
2023-07-09T01:37:47.630Z,7.90
2023-07-09T01:38:50.303Z,8.25
2023-07-09T01:39:52.843Z,8.27
2023-07-09T01:40:54.311Z,8.63
2023-07-09T01:41:56.300Z,8.77
2023-07-09T01:42:59.321Z,7.72
2023-07-09T01:44:00.907Z,8.80
2023-07-09T01:45:05.199Z,8.20
2023-07-09T01:46:06.843Z,8.18
2023-07-09T01:47:08.347Z,8.32
2023-07-09T01:48:15.367Z,8.13
2023-07-09T01:49:17.916Z,8.07
2023-07-09T01:50:19.383Z,7.90
2023-07-09T01:51:20.963Z,8.43
2023-07-09T01:52:23.460Z,8.07
2023-07-09T01:53:27.308Z,8.20
2023-07-09T01:54:31.177Z,8.35
2023-07-09T01:55:32.722Z,8.45
2023-07-09T01:56:35.665Z,8.10
2023-07-09T01:57:37.446Z,8.15
2023-07-09T01:58:43.275Z,8.50
2023-07-09T01:59:45.200Z,7.78
2023-07-09T02:00:46.723Z,7.85
2023-07-09T02:01:48.247Z,7.95
2023-07-09T02:02:49.892Z,8.30
2023-07-09T02:03:51.965Z,8.40
2023-07-09T02:04:57.323Z,8.93
2023-07-09T02:06:00.961Z,8.30
2023-07-09T02:07:02.767Z,7.90
2023-07-09T02:08:05.328Z,8.75
2023-07-09T02:09:07.736Z,7.90
2023-07-09T02:10:10.051Z,8.15
2023-07-09T02:11:11.521Z,8.75
2023-07-09T02:12:14.398Z,8.77
2023-07-09T02:14:17.546Z,9.00
2023-07-09T02:15:18.989Z,8.68
2023-07-09T02:16:20.438Z,8.05
2023-07-09T02:17:21.954Z,8.77
2023-07-09T02:18:23.436Z,8.63
2023-07-09T02:19:24.856Z,8.13
2023-07-09T02:20:27.285Z,8.27
2023-07-09T02:21:30.877Z,8.38
2023-07-09T02:22:32.322Z,8.32
2023-07-09T02:23:34.074Z,8.85
2023-07-09T02:24:35.637Z,8.48
2023-07-09T02:25:37.149Z,8.35
2023-07-09T02:26:38.750Z,8.68
2023-07-09T02:27:40.485Z,8.52
2023-07-09T02:28:42.265Z,8.23
2023-07-09T02:29:52.772Z,9.00
2023-07-09T02:30:54.295Z,8.82
2023-07-09T02:31:58.071Z,8.57
2023-07-09T02:32:59.550Z,8.65
2023-07-09T02:34:01.418Z,8.68
2023-07-09T02:35:02.953Z,8.50
2023-07-09T02:36:05.005Z,8.88
2023-07-09T02:37:06.674Z,9.23
2023-07-09T02:38:08.121Z,8.13
2023-07-09T02:39:11.245Z,7.95
2023-07-09T02:40:14.188Z,8.48
2023-07-09T02:41:15.681Z,8.90
2023-07-09T02:42:19.053Z,9.07
2023-07-09T02:43:20.459Z,8.48
2023-07-09T02:44:22.012Z,9.48
2023-07-09T02:45:23.500Z,8.40
2023-07-09T02:46:24.952Z,7.65
2023-07-09T02:47:26.563Z,8.95
2023-07-09T02:48:28.109Z,7.85
2023-07-09T02:49:29.541Z,8.30
2023-07-09T02:50:31.019Z,8.30
2023-07-09T02:51:32.823Z,8.80
2023-07-09T02:52:34.374Z,8.80
2023-07-09T02:53:35.876Z,8.50
2023-07-09T02:54:37.534Z,8.95
2023-07-09T02:55:39.018Z,8.43
2023-07-09T02:56:40.490Z,8.63
2023-07-09T02:57:41.969Z,8.00
2023-07-09T02:58:43.442Z,7.88
2023-07-09T02:59:44.916Z,8.27
2023-07-09T03:00:52.946Z,8.88
2023-07-09T03:01:55.266Z,7.70
2023-07-09T03:02:56.795Z,8.45
2023-07-09T03:04:00.836Z,9.02
2023-07-09T03:05:02.498Z,8.07
2023-07-09T03:06:04.349Z,8.82
2023-07-09T03:07:06.424Z,8.20
2023-07-09T03:08:07.931Z,8.40
2023-07-09T03:09:10.426Z,8.32
2023-07-09T03:10:11.860Z,8.38
2023-07-09T03:11:14.876Z,7.78
2023-07-09T03:12:16.316Z,8.93
2023-07-09T03:13:17.736Z,8.52
2023-07-09T03:14:19.183Z,7.82
2023-07-09T03:15:20.617Z,8.20
2023-07-09T03:16:22.147Z,7.95
2023-07-09T03:17:23.620Z,8.50
2023-07-09T03:18:25.758Z,8.25
2023-07-09T03:19:27.191Z,8.25
2023-07-09T03:20:28.633Z,8.05
2023-07-09T03:21:30.171Z,9.80
2023-07-09T03:22:31.617Z,8.07
2023-07-09T03:23:33.090Z,8.25
2023-07-09T03:24:34.540Z,8.52
2023-07-09T03:25:41.295Z,7.85
2023-07-09T03:26:42.723Z,8.35
2023-07-09T03:27:44.162Z,7.85
2023-07-09T03:28:45.764Z,8.00
2023-07-09T03:29:47.685Z,9.65
2023-07-09T03:30:50.465Z,8.23
2023-07-09T03:32:53.400Z,9.55
2023-07-09T03:33:55.012Z,7.60
2023-07-09T03:34:56.758Z,8.75
2023-07-09T03:35:58.277Z,8.80
2023-07-09T03:36:59.722Z,8.43
2023-07-09T03:38:01.510Z,7.78
2023-07-09T03:39:03.660Z,8.15
2023-07-09T03:40:05.981Z,8.38
2023-07-09T03:41:07.559Z,7.95
2023-07-09T03:42:10.560Z,8.80
2023-07-09T03:43:13.414Z,8.20
2023-07-09T03:44:14.856Z,8.50
2023-07-09T03:45:17.039Z,7.60
2023-07-09T03:46:18.496Z,8.48
2023-07-09T03:47:20.005Z,8.00
2023-07-09T03:48:22.142Z,8.02
2023-07-09T03:49:23.682Z,8.63
2023-07-09T03:50:25.440Z,7.95
2023-07-09T03:51:27.082Z,8.50
2023-07-09T03:52:28.521Z,7.70
2023-07-09T03:53:30.145Z,7.95
2023-07-09T03:54:31.558Z,7.78
2023-07-09T03:55:33.761Z,7.60
2023-07-09T03:56:35.247Z,8.18
2023-07-09T03:57:36.738Z,7.72
2023-07-09T03:58:38.160Z,7.68
2023-07-09T03:59:40.937Z,8.07
2023-07-09T04:01:47.284Z,7.82
2023-07-09T04:02:49.366Z,7.57
2023-07-09T04:03:51.163Z,8.63
2023-07-09T04:04:52.625Z,8.30
2023-07-09T04:05:54.429Z,8.20
2023-07-09T04:06:55.937Z,7.85
2023-07-09T04:07:57.365Z,7.85
2023-07-09T04:08:58.850Z,8.43
2023-07-09T04:10:00.299Z,7.88
2023-07-09T04:11:04.100Z,7.85
2023-07-09T04:12:06.553Z,8.30
2023-07-09T04:13:08.245Z,8.18
2023-07-09T04:14:09.776Z,7.72
2023-07-09T04:15:13.836Z,8.45
2023-07-09T04:16:15.704Z,8.20
2023-07-09T04:17:17.177Z,7.88
2023-07-09T04:18:18.624Z,8.73
2023-07-09T04:19:20.102Z,8.25
2023-07-09T04:20:21.584Z,7.97
2023-07-09T04:21:23.352Z,7.50
2023-07-09T04:22:25.133Z,7.78
2023-07-09T04:23:26.610Z,8.25
2023-07-09T04:24:28.290Z,7.85
2023-07-09T04:25:30.000Z,7.75
2023-07-09T04:26:31.465Z,8.43
2023-07-09T04:27:32.954Z,7.82
2023-07-09T04:28:34.821Z,7.95
2023-07-09T04:29:36.943Z,8.52
2023-07-09T04:30:38.642Z,7.97
2023-07-09T04:31:41.040Z,8.13
2023-07-09T04:32:44.671Z,7.78
2023-07-09T04:33:46.434Z,8.07
2023-07-09T04:34:48.729Z,7.50
2023-07-09T04:35:50.431Z,7.85
2023-07-09T04:36:51.939Z,7.50
2023-07-09T04:37:53.393Z,7.32
2023-07-09T04:38:54.823Z,8.05
2023-07-09T04:39:56.280Z,7.78
2023-07-09T04:40:57.709Z,8.10
2023-07-09T04:41:59.157Z,8.20
2023-07-09T04:43:00.627Z,7.63
2023-07-09T04:44:02.071Z,7.70
2023-07-09T04:45:03.770Z,7.57
2023-07-09T04:46:05.533Z,8.20
2023-07-09T04:47:07.365Z,7.85
2023-07-09T04:48:08.967Z,7.55
2023-07-09T04:49:13.503Z,7.57
2023-07-09T04:50:15.265Z,7.85
2023-07-09T04:51:16.988Z,7.10
2023-07-09T04:52:18.479Z,7.32
2023-07-09T04:53:21.344Z,8.07
2023-07-09T04:54:23.835Z,8.13
2023-07-09T04:55:25.885Z,7.75
2023-07-09T04:56:27.380Z,8.38
2023-07-09T04:57:29.368Z,7.95
2023-07-09T04:58:31.288Z,7.65
2023-07-09T04:59:32.774Z,7.88
2023-07-09T05:00:34.379Z,7.72
2023-07-09T05:01:35.916Z,7.15
2023-07-09T05:02:37.405Z,7.35
2023-07-09T05:03:39.897Z,9.05
2023-07-09T05:04:41.414Z,7.63
2023-07-09T05:05:47.662Z,7.88
2023-07-09T05:06:49.120Z,8.27
2023-07-09T05:07:51.812Z,7.95
2023-07-09T05:08:53.368Z,7.35
2023-07-09T05:09:55.059Z,7.80
2023-07-09T05:10:58.216Z,8.00
2023-07-09T05:12:01.276Z,7.53
2023-07-09T05:13:03.173Z,7.00
2023-07-09T05:14:04.931Z,8.02
2023-07-09T05:15:06.926Z,8.13
2023-07-09T05:16:08.404Z,7.45
2023-07-09T05:17:09.973Z,7.22
2023-07-09T05:18:15.110Z,7.30
2023-07-09T05:19:18.492Z,8.25
2023-07-09T05:20:20.026Z,7.43
2023-07-09T05:21:21.483Z,7.20
2023-07-09T05:22:23.017Z,7.55
2023-07-09T05:23:27.555Z,7.97
2023-07-09T05:24:29.016Z,7.85
2023-07-09T05:25:31.239Z,8.25
2023-07-09T05:26:32.731Z,8.50
2023-07-09T05:27:34.222Z,8.00
2023-07-09T05:28:36.056Z,8.25
2023-07-09T05:29:37.514Z,7.68
2023-07-09T05:30:42.618Z,9.02
2023-07-09T05:31:44.119Z,7.72
2023-07-09T05:32:45.685Z,7.53
2023-07-09T05:33:47.607Z,7.00
2023-07-09T05:34:49.063Z,6.75
2023-07-09T05:35:50.637Z,7.18
2023-07-09T05:36:52.103Z,6.88
2023-07-09T05:37:56.754Z,6.82
2023-07-09T05:38:58.559Z,6.72
2023-07-09T05:40:00.037Z,7.57
2023-07-09T05:41:03.622Z,7.22
2023-07-09T05:42:05.482Z,7.85
2023-07-09T05:43:07.044Z,7.10
2023-07-09T05:44:08.636Z,6.57
2023-07-09T05:45:10.896Z,7.60
2023-07-09T05:46:14.087Z,7.75
2023-07-09T05:47:15.666Z,7.10
2023-07-09T05:48:17.212Z,6.70
2023-07-09T05:49:19.078Z,6.90
2023-07-09T05:50:20.523Z,6.00
2023-07-09T05:51:22.664Z,6.38
2023-07-09T05:52:25.263Z,6.38
2023-07-09T05:53:26.756Z,7.00
2023-07-09T05:54:28.207Z,6.72
2023-07-09T05:55:29.633Z,6.60
2023-07-09T05:56:31.134Z,6.55
2023-07-09T05:57:32.563Z,7.30
2023-07-09T05:58:34.079Z,6.32
2023-07-09T05:59:35.825Z,6.55
2023-07-09T06:00:38.546Z,6.93
2023-07-09T06:02:41.671Z,7.50
2023-07-09T06:03:44.000Z,6.78
2023-07-09T06:04:46.575Z,7.18
2023-07-09T06:05:50.888Z,6.30
2023-07-09T06:06:52.410Z,6.07
2023-07-09T06:07:54.900Z,7.15
2023-07-09T06:08:56.458Z,7.80
2023-07-09T06:09:58.348Z,6.22
2023-07-09T06:11:03.028Z,6.35
2023-07-09T06:12:06.381Z,6.05
2023-07-09T06:13:07.840Z,6.72
2023-07-09T06:15:11.133Z,6.85
2023-07-09T06:16:12.596Z,6.32
2023-07-09T06:17:14.056Z,6.50
2023-07-09T06:18:15.861Z,6.60
2023-07-09T06:19:17.328Z,6.55
2023-07-09T06:20:18.802Z,6.20
2023-07-09T06:21:20.247Z,6.03
2023-07-09T06:22:21.760Z,6.18
2023-07-09T06:23:23.265Z,6.15
2023-07-09T06:24:25.401Z,6.18
2023-07-09T06:25:27.001Z,6.70
2023-07-09T06:26:28.448Z,6.47
2023-07-09T06:27:29.896Z,5.72
2023-07-09T06:28:31.427Z,6.07
2023-07-09T06:29:33.494Z,5.47
2023-07-09T06:30:34.971Z,6.13
2023-07-09T06:31:38.343Z,6.63
2023-07-09T06:32:39.907Z,5.57
2023-07-09T06:33:41.483Z,5.88
2023-07-09T06:34:43.225Z,6.93
2023-07-09T06:35:49.875Z,6.50
2023-07-09T06:36:51.295Z,6.25
2023-07-09T06:37:52.735Z,6.82
2023-07-09T06:38:54.168Z,6.00
2023-07-09T06:39:55.925Z,6.25
2023-07-09T06:40:58.450Z,6.32
2023-07-09T06:41:59.974Z,6.47
2023-07-09T06:43:01.498Z,6.30
2023-07-09T06:44:03.060Z,6.00
2023-07-09T06:45:05.898Z,6.15
2023-07-09T06:47:13.523Z,5.95
2023-07-09T06:48:14.976Z,6.28
2023-07-09T06:49:16.480Z,6.07
2023-07-09T06:50:18.088Z,5.80
2023-07-09T06:51:19.516Z,5.88
2023-07-09T06:52:20.949Z,6.10
2023-07-09T06:53:23.068Z,6.00
2023-07-09T06:54:24.509Z,5.85
2023-07-09T06:55:26.615Z,5.80
2023-07-09T06:56:28.060Z,5.93
2023-07-09T06:57:29.619Z,5.78
2023-07-09T06:58:33.091Z,5.28
2023-07-09T06:59:34.643Z,5.80
2023-07-09T07:00:39.484Z,5.32
2023-07-09T07:01:41.135Z,6.32
2023-07-09T07:02:43.487Z,5.78
2023-07-09T07:03:45.110Z,5.18
2023-07-09T07:04:46.658Z,4.70
2023-07-09T07:05:50.256Z,6.18
2023-07-09T07:06:51.742Z,5.20
2023-07-09T07:07:54.337Z,5.88
2023-07-09T07:08:55.772Z,5.38
2023-07-09T07:09:57.210Z,5.43
2023-07-09T07:11:03.830Z,5.20
2023-07-09T07:12:06.120Z,5.88
2023-07-09T07:13:07.646Z,5.22
2023-07-09T07:14:09.144Z,5.20
2023-07-09T07:15:12.038Z,5.65
2023-07-09T07:16:13.863Z,5.13
2023-07-09T07:17:15.637Z,5.78
2023-07-09T07:18:17.070Z,5.97
2023-07-09T07:19:18.575Z,5.22
2023-07-09T07:20:20.325Z,5.80
2023-07-09T07:21:21.797Z,5.10
2023-07-09T07:22:23.250Z,5.25
2023-07-09T07:23:25.209Z,5.35
2023-07-09T07:24:26.658Z,5.57
2023-07-09T07:25:28.178Z,5.72
2023-07-09T07:26:29.628Z,5.70
2023-07-09T07:27:31.361Z,5.93
2023-07-09T07:28:35.629Z,5.97
2023-07-09T07:29:37.261Z,5.60
2023-07-09T07:30:38.783Z,5.63
2023-07-09T07:31:40.259Z,5.50
2023-07-09T07:32:48.804Z,4.95
2023-07-09T07:33:50.299Z,5.40
2023-07-09T07:34:51.736Z,4.85
2023-07-09T07:36:24.005Z,5.45
2023-07-09T07:37:14.821Z,5.43
2023-07-09T07:38:16.245Z,5.40
2023-07-09T07:39:17.688Z,5.70
2023-07-09T07:40:19.222Z,5.60
2023-07-09T07:41:21.047Z,5.70
2023-07-09T07:42:22.541Z,5.60
2023-07-09T07:43:24.009Z,5.63
2023-07-09T07:44:25.478Z,5.53
2023-07-09T07:45:26.955Z,6.00
2023-07-09T07:46:30.461Z,5.40
2023-07-09T07:47:32.231Z,5.10
2023-07-09T07:48:33.764Z,5.03
2023-07-09T07:49:35.200Z,5.10
2023-07-09T07:50:37.139Z,4.88
2023-07-09T07:51:39.452Z,5.35
2023-07-09T07:52:40.924Z,5.07
2023-07-09T07:53:42.405Z,5.40
2023-07-09T07:54:44.074Z,5.70
2023-07-09T07:55:45.553Z,5.50
2023-07-09T07:56:47.498Z,5.20
2023-07-09T07:57:49.008Z,5.07
2023-07-09T07:58:50.632Z,5.30
2023-07-09T07:59:52.054Z,5.05
2023-07-09T08:00:58.012Z,5.72
2023-07-09T08:01:59.696Z,5.00
2023-07-09T08:03:01.243Z,5.43
2023-07-09T08:04:03.977Z,5.70
2023-07-09T08:06:08.292Z,5.18
2023-07-09T08:07:11.563Z,5.05
2023-07-09T08:08:13.049Z,4.75
2023-07-09T08:09:14.705Z,4.90
2023-07-09T08:10:16.710Z,4.72
2023-07-09T08:11:18.264Z,4.93
2023-07-09T08:12:20.057Z,5.18
2023-07-09T08:13:21.537Z,5.05
2023-07-09T08:14:23.590Z,5.00
2023-07-09T08:15:25.973Z,4.93
2023-07-09T08:16:27.923Z,5.22
2023-07-09T08:17:29.895Z,5.00
2023-07-09T08:18:31.967Z,4.88
2023-07-09T08:19:33.944Z,5.90
2023-07-09T08:20:35.465Z,5.35
2023-07-09T08:21:36.998Z,4.35
2023-07-09T08:22:40.624Z,5.18
2023-07-09T08:23:42.526Z,4.45
2023-07-09T08:24:44.242Z,5.30
2023-07-09T08:25:53.821Z,4.50
2023-07-09T08:26:55.699Z,4.95
2023-07-09T08:27:57.108Z,4.32
2023-07-09T08:28:58.566Z,4.35
2023-07-09T08:30:00.039Z,4.20
2023-07-09T08:31:02.217Z,4.80
2023-07-09T08:33:06.743Z,4.65
2023-07-09T08:34:09.093Z,4.50
2023-07-09T08:36:17.477Z,4.60
2023-07-09T08:37:18.927Z,4.05
2023-07-09T08:38:21.456Z,4.03
2023-07-09T08:39:23.142Z,4.43
2023-07-09T08:40:24.686Z,3.97
2023-07-09T08:41:32.922Z,3.97
2023-07-09T08:42:58.759Z,3.83
2023-07-09T08:44:20.630Z,3.90
2023-07-09T08:45:41.638Z,3.95
2023-07-09T08:48:07.136Z,4.45
2023-07-09T08:49:22.890Z,4.30
2023-07-09T08:50:38.627Z,4.30
2023-07-09T08:51:42.544Z,4.32
2023-07-09T08:52:48.245Z,3.90
2023-07-09T08:53:57.696Z,3.95
2023-07-09T08:55:05.444Z,4.13
2023-07-09T08:56:10.708Z,3.63
2023-07-09T08:57:25.783Z,3.70
2023-07-09T08:58:30.713Z,3.83
2023-07-09T08:59:32.619Z,4.75
2023-07-09T09:00:46.858Z,4.32
2023-07-09T09:01:58.768Z,4.45
2023-07-09T09:03:06.431Z,3.63
2023-07-09T09:04:21.437Z,3.80
2023-07-09T09:06:30.876Z,4.03
2023-07-09T09:07:45.451Z,3.40
2023-07-09T09:09:00.631Z,3.75
2023-07-09T09:10:04.252Z,3.58
2023-07-09T09:11:21.638Z,3.38
2023-07-09T09:12:29.300Z,3.53
2023-07-09T09:13:32.128Z,3.92
2023-07-09T09:14:44.960Z,3.92
2023-07-09T09:15:50.847Z,3.75
2023-07-09T09:16:53.866Z,3.88
2023-07-09T09:19:02.185Z,4.10
2023-07-09T09:20:09.315Z,4.05
2023-07-09T09:21:27.347Z,3.22
2023-07-09T09:22:33.601Z,3.70
2023-07-09T09:23:43.896Z,3.72
2023-07-09T09:25:06.380Z,3.60
2023-07-09T09:26:25.439Z,3.97
2023-07-09T09:27:26.921Z,3.45
2023-07-09T09:28:28.550Z,4.10
2023-07-09T09:29:30.337Z,3.42
2023-07-09T09:30:31.923Z,3.47
2023-07-09T09:31:34.597Z,3.17
2023-07-09T09:33:45.106Z,3.22
2023-07-09T09:34:46.834Z,3.10
2023-07-09T09:35:52.116Z,3.15
2023-07-09T09:36:54.202Z,3.10
2023-07-09T09:37:57.747Z,3.20
2023-07-09T09:39:03.277Z,3.05
2023-07-09T09:41:18.014Z,3.03
2023-07-09T09:42:19.478Z,3.40
2023-07-09T09:43:25.077Z,3.03
2023-07-09T09:44:29.989Z,3.55
2023-07-09T09:45:39.995Z,3.17
2023-07-09T09:46:43.196Z,3.22
2023-07-09T09:47:46.226Z,3.22
2023-07-09T09:48:50.381Z,2.85
2023-07-09T09:49:53.563Z,3.10
2023-07-09T09:50:58.238Z,3.33
2023-07-09T09:52:03.483Z,2.92
2023-07-09T09:53:09.099Z,3.20
2023-07-09T09:54:18.921Z,3.50
2023-07-09T09:55:26.146Z,3.33
2023-07-09T09:56:31.620Z,3.30
2023-07-09T09:57:33.149Z,3.30
2023-07-09T09:58:35.215Z,3.20
2023-07-09T09:59:37.964Z,3.40
2023-07-09T10:00:40.065Z,3.83
2023-07-09T10:01:41.574Z,3.33
2023-07-09T10:02:43.266Z,3.65
2023-07-09T10:03:50.470Z,3.42
2023-07-09T10:04:53.579Z,3.30
2023-07-09T10:06:00.801Z,3.55
2023-07-09T10:07:08.132Z,3.15
2023-07-09T10:08:16.207Z,3.42
2023-07-09T10:09:28.627Z,3.70
2023-07-09T10:10:34.240Z,3.22
2023-07-09T10:11:48.537Z,3.30
2023-07-09T10:12:57.530Z,3.50
2023-07-09T10:14:05.331Z,3.58
2023-07-09T10:15:35.402Z,3.40
2023-07-09T10:16:45.730Z,3.15
2023-07-09T10:18:04.648Z,3.33
2023-07-09T10:19:40.523Z,3.20
2023-07-09T10:21:08.095Z,3.30
2023-07-09T10:22:40.277Z,2.95
2023-07-09T10:24:08.701Z,3.20
2023-07-09T10:25:16.226Z,3.05
2023-07-09T10:26:42.605Z,3.03
2023-07-09T10:27:58.970Z,2.80
2023-07-09T10:29:16.704Z,2.72
2023-07-09T10:30:42.772Z,3.20
2023-07-09T10:31:56.990Z,2.85
2023-07-09T10:33:17.878Z,3.08
2023-07-09T10:34:22.434Z,3.22
2023-07-09T10:35:46.502Z,3.05
2023-07-09T10:37:06.718Z,3.03
2023-07-09T10:38:17.408Z,3.78
2023-07-09T10:39:25.056Z,3.15
2023-07-09T10:40:38.017Z,2.88
2023-07-09T10:41:40.994Z,2.80
2023-07-09T10:42:49.514Z,3.13
2023-07-09T10:44:06.338Z,3.10
2023-07-09T10:45:16.821Z,3.28
2023-07-09T10:46:25.064Z,3.20
2023-07-09T10:47:32.858Z,3.30
2023-07-09T10:48:40.302Z,3.13
2023-07-09T10:49:44.523Z,3.00
2023-07-09T10:50:52.596Z,3.20
2023-07-09T10:52:05.584Z,3.35
2023-07-09T10:53:17.298Z,2.90
2023-07-09T10:54:31.293Z,3.10
2023-07-09T10:55:44.607Z,2.80
2023-07-09T10:56:52.075Z,3.10
2023-07-09T10:58:00.130Z,3.10
2023-07-09T10:59:22.693Z,3.00
2023-07-09T11:00:34.297Z,3.25
2023-07-09T11:01:44.971Z,2.90
2023-07-09T11:02:52.082Z,2.80
2023-07-09T11:03:59.019Z,2.75
2023-07-09T11:05:08.788Z,2.90
2023-07-09T11:06:23.454Z,3.22
2023-07-09T11:07:59.586Z,3.00
2023-07-09T11:09:02.927Z,3.30
2023-07-09T11:10:18.559Z,3.10
2023-07-09T11:11:31.657Z,3.45
2023-07-09T11:12:44.988Z,3.22
2023-07-09T11:13:55.206Z,3.08
2023-07-09T11:15:00.877Z,3.35
2023-07-09T11:16:05.521Z,3.03
2023-07-09T11:17:16.759Z,3.13
2023-07-09T11:18:23.888Z,3.10
2023-07-09T11:19:25.852Z,3.42
2023-07-09T11:20:36.088Z,3.10
2023-07-09T11:21:46.897Z,2.92
2023-07-09T11:22:54.896Z,3.22
2023-07-09T11:24:00.595Z,2.78
2023-07-09T11:25:27.219Z,3.10
2023-07-09T11:26:37.853Z,3.03
2023-07-09T11:27:56.286Z,3.35
2023-07-09T11:29:14.437Z,3.63
2023-07-09T11:30:20.987Z,3.28
2023-07-09T11:31:32.193Z,3.10
2023-07-09T11:32:33.795Z,3.28
2023-07-09T11:33:45.464Z,3.10
2023-07-09T11:34:47.993Z,3.42
2023-07-09T11:35:52.476Z,3.30
2023-07-09T11:36:59.808Z,3.20
2023-07-09T11:38:09.481Z,3.30
2023-07-09T11:39:38.487Z,3.05
2023-07-09T11:40:50.442Z,3.28
2023-07-09T11:41:52.137Z,3.30
2023-07-09T11:42:58.440Z,3.50
2023-07-09T11:44:11.362Z,3.47
2023-07-09T11:45:17.397Z,3.38
2023-07-09T11:46:25.498Z,3.35
2023-07-09T11:47:32.753Z,3.50
2023-07-09T11:48:36.147Z,3.28
2023-07-09T11:49:55.296Z,3.22
2023-07-09T11:51:00.928Z,3.10
2023-07-09T11:52:05.369Z,3.08
2023-07-09T11:53:31.638Z,2.72
2023-07-09T11:54:38.407Z,3.42
2023-07-09T11:55:42.364Z,3.25
2023-07-09T11:56:56.727Z,3.10
2023-07-09T11:58:03.227Z,3.17
2023-07-09T11:59:05.547Z,3.28
2023-07-09T12:00:09.812Z,3.42
2023-07-09T12:01:17.524Z,3.10
2023-07-09T12:02:22.063Z,3.47
2023-07-09T12:03:35.989Z,3.05
2023-07-09T12:04:37.648Z,3.22
2023-07-09T12:05:39.358Z,3.00
2023-07-09T12:06:41.508Z,3.13
2023-07-09T12:07:43.430Z,2.97
2023-07-09T12:08:47.203Z,3.80
2023-07-09T12:09:51.907Z,3.10
2023-07-09T12:10:54.354Z,2.90
2023-07-09T12:11:55.792Z,3.17
2023-07-09T12:12:58.528Z,3.00
2023-07-09T12:14:14.834Z,3.08
2023-07-09T12:15:22.815Z,3.22
2023-07-09T12:16:32.387Z,3.30
2023-07-09T12:17:35.178Z,3.50
2023-07-09T12:18:36.674Z,3.47
2023-07-09T12:19:39.894Z,3.58
2023-07-09T12:20:46.138Z,3.60
2023-07-09T12:21:52.429Z,3.03
2023-07-09T12:22:53.977Z,3.35
2023-07-09T12:23:57.034Z,3.20
2023-07-09T12:24:58.702Z,3.22
2023-07-09T12:26:02.303Z,3.45
2023-07-09T12:27:17.842Z,3.85
2023-07-09T12:28:21.536Z,3.10
2023-07-09T12:29:32.886Z,3.28
2023-07-09T12:30:34.797Z,3.45
2023-07-09T12:31:36.615Z,3.40
2023-07-09T12:32:46.520Z,3.40
2023-07-09T12:33:54.236Z,3.58
2023-07-09T12:34:57.352Z,3.20
2023-07-09T12:36:01.953Z,3.00
2023-07-09T12:37:04.479Z,3.22
2023-07-09T12:38:19.094Z,3.22
2023-07-09T12:39:26.727Z,3.22
2023-07-09T12:40:30.764Z,3.05
2023-07-09T12:41:45.873Z,3.13
2023-07-09T12:42:48.293Z,2.88
2023-07-09T12:43:50.345Z,3.30
2023-07-09T12:44:52.622Z,3.10
2023-07-09T12:45:55.309Z,2.97
2023-07-09T12:46:57.044Z,3.25
2023-07-09T12:47:58.750Z,3.30
2023-07-09T12:49:00.280Z,3.22
2023-07-09T12:50:32.595Z,3.10
2023-07-09T12:51:34.721Z,3.50
2023-07-09T12:52:45.824Z,3.50
2023-07-09T12:53:47.553Z,3.20
2023-07-09T12:54:59.714Z,3.20
2023-07-09T12:56:02.392Z,3.13
2023-07-09T12:57:16.437Z,3.13
2023-07-09T12:58:24.466Z,3.00
2023-07-09T12:59:28.641Z,3.28
2023-07-09T13:00:31.971Z,3.20
2023-07-09T13:01:36.021Z,3.35
2023-07-09T13:02:39.395Z,3.30
2023-07-09T13:03:41.141Z,3.30
2023-07-09T13:04:43.138Z,3.30
2023-07-09T13:06:00.620Z,3.30
2023-07-09T13:07:02.691Z,3.47
2023-07-09T13:08:04.380Z,3.10
2023-07-09T13:09:21.475Z,3.08
2023-07-09T13:10:27.741Z,3.05
2023-07-09T13:11:35.374Z,3.30
2023-07-09T13:12:40.389Z,3.35
2023-07-09T13:13:42.015Z,3.22
2023-07-09T13:14:43.566Z,3.00
2023-07-09T13:15:49.498Z,3.13
2023-07-09T13:16:51.296Z,3.30
2023-07-09T13:18:03.847Z,3.10
2023-07-09T13:19:05.411Z,2.90
2023-07-09T13:20:07.092Z,3.53
2023-07-09T13:21:17.774Z,3.28
2023-07-09T13:22:19.765Z,3.03
2023-07-09T13:23:31.348Z,3.33
2023-07-09T13:24:36.818Z,3.30
2023-07-09T13:25:46.925Z,3.03
2023-07-09T13:26:49.848Z,3.63
2023-07-09T13:27:54.325Z,3.00
2023-07-09T13:28:56.092Z,3.55
2023-07-09T13:29:57.508Z,3.05
2023-07-09T13:31:02.014Z,3.10
2023-07-09T13:32:03.995Z,2.90
2023-07-09T13:33:10.000Z,3.20
2023-07-09T13:34:34.626Z,3.00
2023-07-09T13:35:36.246Z,3.13
2023-07-09T13:36:37.887Z,3.00
2023-07-09T13:37:39.319Z,3.15
2023-07-09T13:38:42.305Z,3.05
2023-07-09T13:39:45.508Z,3.00
2023-07-09T13:40:50.307Z,3.25
2023-07-09T13:41:56.416Z,3.38
2023-07-09T13:42:57.871Z,3.70
2023-07-09T13:43:59.899Z,3.33
2023-07-09T13:45:01.338Z,2.97
2023-07-09T13:46:10.471Z,3.40
2023-07-09T13:47:20.168Z,3.58
2023-07-09T13:48:22.273Z,3.22
2023-07-09T13:49:28.264Z,3.20
2023-07-09T13:50:29.800Z,3.20
2023-07-09T13:51:31.724Z,3.60
2023-07-09T13:52:38.085Z,3.22
2023-07-09T13:53:39.555Z,3.53
2023-07-09T13:54:41.061Z,2.97
2023-07-09T13:55:43.228Z,3.60
2023-07-09T13:56:45.501Z,3.13
2023-07-09T13:57:47.134Z,3.05
2023-07-09T13:58:50.297Z,3.47
2023-07-09T13:59:52.729Z,3.33
2023-07-09T14:01:00.968Z,3.40
2023-07-09T14:02:06.364Z,3.03
2023-07-09T14:03:16.261Z,3.20
2023-07-09T14:04:19.940Z,3.22
2023-07-09T14:05:21.450Z,3.50
2023-07-09T14:06:22.917Z,3.40
2023-07-09T14:07:33.701Z,3.05
2023-07-09T14:08:35.195Z,3.28
2023-07-09T14:09:36.723Z,3.03
2023-07-09T14:10:38.619Z,3.13
2023-07-09T14:11:46.731Z,3.33
2023-07-09T14:12:48.763Z,3.17
2023-07-09T14:13:50.258Z,3.03
2023-07-09T14:14:53.086Z,3.33
2023-07-09T14:15:54.521Z,3.08
2023-07-09T14:16:56.076Z,3.25
2023-07-09T14:17:58.101Z,3.50
2023-07-09T14:18:59.681Z,3.25
2023-07-09T14:20:01.318Z,3.22
2023-07-09T14:21:13.397Z,3.25
2023-07-09T14:22:26.875Z,3.10
2023-07-09T14:23:28.737Z,3.28
2023-07-09T14:24:30.523Z,2.95
2023-07-09T14:25:32.030Z,3.30
2023-07-09T14:26:33.475Z,3.30
2023-07-09T14:27:34.923Z,3.20
2023-07-09T14:28:40.118Z,3.47
2023-07-09T14:29:41.758Z,3.65
2023-07-09T14:30:45.457Z,3.00
2023-07-09T14:31:48.131Z,3.08
2023-07-09T14:33:51.889Z,2.97
2023-07-09T14:34:53.320Z,3.40
2023-07-09T14:35:55.001Z,3.40
2023-07-09T14:36:59.913Z,3.10